• Join FlightAware (Why Join?)
  • Login
  • US Flag 
04:59AM EDT


 

Airport Tracker/Info


-or-


 

Live Flight TrackerFlight Track Log ✈ QXE2397 ✈ 27-Aug-2013 ✈ KMSO - KSEA

Flight Track Log - Related Links

Times and Time Zones

All times are in EDT time to prevent confusion due to time zone crossing. See the QXE2397 flight status page for this flight to view local times or setup timezone preferences in your user account.

Time Position Orientation Groundspeed Altitude Reporting Facility
EDT Latitude Longitude Course Direction KTS MPH feet Rate Location/Type
10:01PM 47.2031 -114.6546 294° West  Level FlightAware Approximate
10:02PM 47.2334 -114.7670 296° West  Level FlightAware Approximate
10:03PM 47.2682 -114.8777 282° West  Level FlightAware Approximate
10:04PM 47.2873 -114.9966 294° West  Level FlightAware Approximate
10:05PM 47.3210 -115.1087 294° West  Level FlightAware Approximate
10:06PM 47.3498 -115.2235 288° West  Level FlightAware Approximate
10:07PM 47.3757 -115.3401 288° West  Level FlightAware Approximate
10:08PM 47.4018 -115.4566 292° West  Level FlightAware Approximate
10:09PM 47.4329 -115.5704 292° West  Level FlightAware Approximate
10:10PM 47.4366 -115.6888 275° West  Level Estimated
10:11PM 47.4458 -115.8046 277° West  Level FlightAware Approximate
10:12PM 47.4550 -115.9204 277° West  Level FlightAware Approximate
10:13PM 47.4640 -116.0363 277° West  Level FlightAware Approximate
10:14PM 47.4728 -116.1522 277° West  Level FlightAware Approximate
10:15PM 47.4816 -116.2681 276° West  Level FlightAware Approximate
10:16PM 47.4841 -116.3870 279° West  Level Estimated
10:17PM 47.4925 -116.5054 276° West  Level FlightAware Approximate
10:18PM 47.5008 -116.6237 276° West  Level FlightAware Approximate
10:19PM 47.5089 -116.7421 276° West  Level FlightAware Approximate
10:20PM 47.5170 -116.8605 276° West  Level FlightAware Approximate
10:21PM 47.5249 -116.9790 276° West  Level FlightAware Approximate
10:22PM 47.5327 -117.0975 276° West  Level FlightAware Approximate
10:23PM 47.5404 -117.2161 276° West  Level FlightAware Approximate
10:24PM 47.5480 -117.3346 275° West  Level FlightAware Approximate
10:25PM 47.5554 -117.4532 275° West  Level FlightAware Approximate
10:26PM 47.5628 -117.5719 275° West  Level FlightAware Approximate
10:27PM 47.5700 -117.6906 275° West  Level FlightAware Approximate
10:28PM 47.5770 -117.8092 275° West  Level FlightAware Approximate
10:29PM 47.5847 -117.9305 278° West  Level FlightAware Approximate
10:30PM 47.5962 -118.0485 278° West  Level FlightAware Approximate
10:31PM 47.6077 -118.1665 278° West  Level FlightAware Approximate
10:32PM 47.6189 -118.2846 278° West  Level FlightAware Approximate
10:33PM 47.6301 -118.4027 278° West  Level FlightAware Approximate
10:34PM 47.6412 -118.5209 278° West  Level FlightAware Approximate
10:35PM 47.6564 -118.6378 278° West  Level FlightAware Approximate
10:36PM 47.6668 -118.7557 278° West  Level FlightAware Approximate
10:37PM 47.6774 -118.8766 277° West  Level FlightAware Approximate
10:38PM 47.6878 -118.9976 277° West  Level FlightAware Approximate
10:39PM 47.6982 -119.1186 277° West  Level FlightAware Approximate
10:40PM 47.7084 -119.2396 277° West  Level FlightAware Approximate
10:41PM 47.7184 -119.3607 277° West  Level FlightAware Approximate
10:42PM 47.7284 -119.4819 277° West  Level FlightAware Approximate
10:43PM 47.7382 -119.6031 277° West  Level FlightAware Approximate
10:44PM 47.7478 -119.7243 277° West  Level FlightAware Approximate
10:45PM 47.7574 -119.8456 277° West  Level FlightAware Approximate
10:46PM 47.7668 -119.9669 277° West  Level FlightAware Approximate
10:47PM 47.7761 -120.0883 277° West  Level FlightAware Approximate
10:48PM 47.7851 -120.2097 276° West  Level FlightAware Approximate
10:49PM 47.7934 -120.3313 276° West  Level FlightAware Approximate
10:50PM 47.8016 -120.4529 276° West  Level FlightAware Approximate
10:51PM 47.8096 -120.5746 276° West  Level FlightAware Approximate
10:52PM 47.8167 -120.6963 270° West  Level FlightAware Approximate
10:53PM 47.8207 -120.8183 277° West  Level FlightAware Approximate
10:54PM 47.8300 -120.9398 277° West  Level FlightAware Approximate
10:55PM 47.8348 -121.0616 281° West  Level FlightAware Approximate
10:56PM 47.8498 -121.1818 281° West  Level FlightAware Approximate
10:57PM 47.8586 -121.3035 276° West  Level FlightAware Approximate
10:58PM 47.8672 -121.4252 276° West  Level FlightAware Approximate
10:59PM 47.8754 -121.5470 276° West  Level FlightAware Approximate
11:00PM 47.8833 -121.6688 270° West  Level FlightAware Approximate
11:01PM 47.8325 -121.7508 214° Southwest  Level FlightAware Approximate
11:02PM 47.7747 -121.8366 228° Southwest  Level FlightAware Approximate
11:03PM 47.7165 -121.9225 222° Southwest  Level FlightAware Approximate
11:04PM 47.6554 -122.0040 222° Southwest  Level FlightAware Approximate
11:05PM 47.5898 -122.0769 214° Southwest  Level FlightAware Approximate
11:06PM 47.5350 -122.1500 180° South  Level FlightAware Approximate
11:07PM 47.4795 -122.2384 222° Southwest  Level FlightAware Approximate
11:08PM 47.4333 -122.3000 222° Southwest  Level FlightAware Approximate
11:09PM 47.4499 -122.3118 222° Southwest  Level Estimated
11:10PM 47.4499 -122.3118 222° Southwest  Level Estimated
11:11PM 47.4499 -122.3118 222° Southwest  Level Estimated
11:12PM 47.4499 -122.3118 222° Southwest  Level Estimated
11:13PM 47.4499 -122.3118 222° Southwest  Level Estimated
11:14PM 47.4499 -122.3118 222° Southwest  Level Estimated
11:15PM 47.4499 -122.3118 222° Southwest  Level Estimated
11:16PM 47.4499 -122.3118 222° Southwest  Level Estimated
11:17PM 47.4499 -122.3118 222° Southwest  Level Estimated
11:18PM 47.4499 -122.3118 222° Southwest  Level Estimated
11:19PM 47.4499 -122.3118 222° Southwest  Level Estimated
11:20PM 47.4499 -122.3118 222° Southwest  Level Estimated
11:21PM 47.4499 -122.3118 222° Southwest  Level Estimated
11:22PM 47.4499 -122.3118 222° Southwest  Level Estimated
11:23PM 47.4499 -122.3118 222° Southwest  Level Estimated
11:24PM 47.4499 -122.3118 222° Southwest  Level Estimated